»·PEaware :: SKY620 KPRC-KHII

SKY620 :: KPRC-KHII

FLIGHT INFORMATION

Flight Status: Arrived
Operator:
Sky High Charters
More flights by this operator :: More flights under this callsign
Pilot: Seb M. (28802)
Aircraft: CESSNA 206 STATIONAIR
(C206)
More flights by this aircraft type
Origin: KPRC Love
United States
Destination: KHII Lake Havasu City
United States
More flights between these airports :: More routes between these airports
Route: WNSKI2 MUMTE V12 EED
File this flight plan on PilotEdge
Remarks: CFI-I listening in.
Altitude:
(Current/Filed)
10,000ft
Speed:
(Current/Filed)
150kts
Departed: 21-Sep-23 03:40 PM
Arrived: 21-Sep-23 04:44 PM
Distance/Time
Traveled:
96nm/1:04
Distance/Time
To Go:
Arrived

Flight Plot

Page will automatically refresh every two minutes.

Flight plan parsing failed; only flown route is shown


Map Options




Map Legend


Flown Route
Filed Route
Departure Airport
Arrival Airport
Navaid (VOR, NDB)
Fix

Horizontal Profiles

Position Reports

Time Latitude Longitude Heading Altitude Ground
Speed
21-Sep-23 15:15 34.653850 -112.422580 130 4992ft 0kts
21-Sep-23 15:16 34.653850 -112.422580 130 4992ft 0kts
21-Sep-23 15:17 34.653850 -112.422580 130 4992ft 0kts
21-Sep-23 15:18 34.653850 -112.422580 130 4992ft 0kts
21-Sep-23 15:19 34.653850 -112.422580 130 4992ft 0kts
21-Sep-23 15:20 34.653850 -112.422579 130 4992ft 0kts
21-Sep-23 15:21 34.653850 -112.422579 130 4992ft 0kts
21-Sep-23 15:22 34.653850 -112.422579 130 4992ft 0kts
21-Sep-23 15:23 34.653850 -112.422579 130 4992ft 0kts
21-Sep-23 15:24 34.653850 -112.422579 130 4992ft 0kts
21-Sep-23 15:25 34.653850 -112.422579 130 4992ft 0kts
21-Sep-23 15:26 34.653850 -112.422579 130 4992ft 0kts
21-Sep-23 15:27 34.653850 -112.422579 130 4992ft 0kts
21-Sep-23 15:28 34.653850 -112.422579 129 4992ft 0kts
21-Sep-23 15:29 34.653635 -112.422228 125 4993ft 0kts
21-Sep-23 15:30 34.653635 -112.422228 125 4993ft 0kts
21-Sep-23 15:31 34.653635 -112.422228 125 4993ft 0kts
21-Sep-23 15:32 34.653635 -112.422228 125 4993ft 0kts
21-Sep-23 15:33 34.653635 -112.422228 125 4993ft 0kts
21-Sep-23 15:34 34.653569 -112.421933 52 4993ft 9kts
21-Sep-23 15:35 34.654942 -112.420323 94 4988ft 0kts
21-Sep-23 15:36 34.654942 -112.420323 94 4988ft 0kts
21-Sep-23 15:37 34.654907 -112.420182 113 4988ft 2kts
21-Sep-23 15:38 34.654219 -112.419782 219 4993ft 19kts
21-Sep-23 15:39 34.638806 -112.438861 232 5549ft 98kts
21-Sep-23 15:40 34.623553 -112.433092 79 6569ft 100kts
21-Sep-23 15:41 34.636325 -112.401113 81 7436ft 109kts
21-Sep-23 15:42 34.624426 -112.371079 141 8234ft 101kts
21-Sep-23 15:43 34.605016 -112.345526 135 9060ft 101kts
21-Sep-23 15:44 34.586509 -112.319715 134 9998ft 115kts
21-Sep-23 15:45 34.560121 -112.282900 133 10000ft 156kts
21-Sep-23 15:46 34.524384 -112.270938 210 9999ft 154kts
21-Sep-23 15:47 34.495573 -112.309792 233 10000ft 157kts
21-Sep-23 15:48 34.474242 -112.356314 243 9999ft 159kts
21-Sep-23 15:49 34.459797 -112.407256 253 9999ft 160kts
21-Sep-23 15:50 34.452968 -112.460973 262 9999ft 162kts
21-Sep-23 15:51 34.454170 -112.515834 273 9999ft 164kts
21-Sep-23 15:52 34.463649 -112.570206 284 10000ft 167kts
21-Sep-23 15:53 34.481587 -112.622629 295 10000ft 169kts
21-Sep-23 15:54 34.505235 -112.667026 305 9999ft 171kts
21-Sep-23 15:55 34.537882 -112.709057 316 9999ft 172kts
21-Sep-23 15:56 34.576733 -112.743036 328 9999ft 173kts
21-Sep-23 15:57 34.620559 -112.767577 339 9999ft 174kts
21-Sep-23 15:58 34.667592 -112.781478 351 10000ft 174kts
21-Sep-23 15:59 34.715411 -112.787312 326 9995ft 172kts
21-Sep-23 16:00 34.717121 -112.839002 264 10000ft 164kts
21-Sep-23 16:01 34.718484 -112.895094 268 10000ft 166kts
21-Sep-23 16:02 34.720522 -112.951164 269 9992ft 166kts
21-Sep-23 16:03 34.722555 -113.007626 268 9991ft 166kts
21-Sep-23 16:04 34.724351 -113.063747 268 9984ft 166kts
21-Sep-23 16:05 34.726308 -113.120114 268 9956ft 167kts
21-Sep-23 16:06 34.728432 -113.176897 269 9927ft 167kts
21-Sep-23 16:07 34.730385 -113.233406 268 9901ft 167kts
21-Sep-23 16:08 34.732308 -113.290273 268 9873ft 167kts
21-Sep-23 16:09 34.734159 -113.346634 268 9874ft 166kts
21-Sep-23 16:10 34.736005 -113.402963 268 9873ft 166kts
21-Sep-23 16:11 34.737809 -113.458204 268 10113ft 154kts
21-Sep-23 16:12 34.739455 -113.512091 269 10137ft 163kts
21-Sep-23 16:13 34.741215 -113.567912 268 10136ft 166kts
21-Sep-23 16:14 34.742968 -113.624066 268 10136ft 166kts
21-Sep-23 16:15 34.744674 -113.680241 268 10140ft 166kts
21-Sep-23 16:16 34.746346 -113.736549 268 10135ft 166kts
21-Sep-23 16:17 34.747997 -113.792785 268 10123ft 166kts
21-Sep-23 16:18 34.749641 -113.849505 268 10099ft 167kts
21-Sep-23 16:19 34.751091 -113.900416 268 10076ft 168kts
21-Sep-23 16:20 34.752692 -113.957188 268 10051ft 168kts
21-Sep-23 16:21 34.754269 -114.014127 268 10029ft 168kts
21-Sep-23 16:22 34.755809 -114.070951 269 10023ft 167kts
21-Sep-23 16:23 34.757123 -114.127804 260 10013ft 166kts
21-Sep-23 16:24 34.719874 -114.140861 169 10002ft 156kts
21-Sep-23 16:25 34.677280 -114.130380 168 10000ft 156kts
21-Sep-23 16:26 34.634613 -114.119714 168 10000ft 156kts
21-Sep-23 16:27 34.592146 -114.109103 168 9966ft 158kts
21-Sep-23 16:28 34.546326 -114.097683 168 9404ft 174kts
21-Sep-23 16:29 34.499101 -114.085922 168 8804ft 171kts
21-Sep-23 16:30 34.452772 -114.074391 168 8200ft 169kts
21-Sep-23 16:31 34.412951 -114.089523 230 7596ft 161kts
21-Sep-23 16:32 34.389867 -114.135122 236 6925ft 164kts
21-Sep-23 16:33 34.366511 -114.183483 235 6046ft 165kts
21-Sep-23 16:34 34.388488 -114.229364 327 5151ft 185kts
21-Sep-23 16:35 34.430784 -114.259026 328 4170ft 149kts
21-Sep-23 16:36 34.462069 -114.281144 325 3362ft 118kts
21-Sep-23 16:37 34.488190 -114.299579 324 2885ft 92kts
21-Sep-23 16:38 34.510752 -114.316431 322 2832ft 105kts
21-Sep-23 16:39 34.537871 -114.338209 320 2005ft 118kts
21-Sep-23 16:40 34.561638 -114.360059 308 1376ft 107kts
21-Sep-23 16:41 34.587382 -114.377627 6 1274ft 106kts
21-Sep-23 16:42 34.582225 -114.366035 156 812ft 61kts
21-Sep-23 16:43 34.574236 -114.361490 238 760ft 14kts
21-Sep-23 16:44 34.574129 -114.361712 239 758ft 0kts
21-Sep-23 16:45 34.574125 -114.362609 316 751ft 0kts
21-Sep-23 16:46 34.574125 -114.362609 316 751ft 0kts

Navigation Log

Ident Type
Flight plan parsing failed, navigation log unavailable